Time;durP1;ratioP1;P1;durP2;ratioP2;P2;SDS_P1;SDS_P2;PMS_P1;PMS_P2;Temp;Humidity;BMP_temperature;BMP_pressure;BME280_temperature;BME280_humidity;BME280_pressure;Samples;Min_cycle;Max_cycle;Signal;HPM_P1;HPM_P2
2022/05/01 00:01:10;;;;;;;4.57;2.47;;;;;;;15.66;48.89;99220.28;5038153;28;20049;-81
2022/05/01 00:03:35;;;;;;;5.95;3.00;;;;;;;15.60;49.18;99214.75;5038196;28;20463;-81
2022/05/01 00:06:03;;;;;;;4.28;2.60;;;;;;;15.58;48.92;99207.00;5037988;28;20499;-81
2022/05/01 00:08:28;;;;;;;3.67;2.70;;;;;;;15.63;48.80;99212.69;5055834;28;20111;-81
2022/05/01 00:10:54;;;;;;;9.02;2.70;;;;;;;15.59;48.86;99213.91;5038218;28;20127;-81
2022/05/01 00:13:21;;;;;;;6.28;2.80;;;;;;;15.55;48.82;99207.28;5054621;28;20021;-81
2022/05/01 00:15:47;;;;;;;6.78;2.72;;;;;;;15.56;48.92;99217.66;5054907;28;20051;-81
2022/05/01 00:18:12;;;;;;;4.88;2.47;;;;;;;15.52;49.18;99207.53;5038004;28;20033;-81
2022/05/01 00:20:38;;;;;;;4.53;2.47;;;;;;;15.51;49.18;99212.00;5054323;28;20545;-81
2022/05/01 00:23:03;;;;;;;5.93;2.83;;;;;;;15.50;49.25;99212.94;5055520;28;20104;-80
2022/05/01 00:25:29;;;;;;;4.65;2.63;;;;;;;15.45;49.32;99216.94;5037788;28;20123;-81
2022/05/01 00:27:55;;;;;;;4.72;2.67;;;;;;;15.45;49.38;99209.91;5038003;28;20028;-81
2022/05/01 00:30:20;;;;;;;4.78;2.50;;;;;;;15.41;49.55;99212.94;5022020;28;20163;-81
2022/05/01 00:38:24;;;;;;;4.65;2.58;;;;;;;15.34;49.79;99215.28;5053432;28;20094;-80
2022/05/01 00:40:51;;;;;;;6.10;2.90;;;;;;;15.35;49.71;99220.41;5020148;28;20476;-82
2022/05/01 00:43:16;;;;;;;5.13;2.60;;;;;;;15.33;49.55;99218.88;5036694;28;20541;-81
2022/05/01 00:45:42;;;;;;;5.75;2.35;;;;;;;15.33;49.79;99219.69;5036510;28;20053;-81
2022/05/01 00:48:07;;;;;;;7.40;2.45;;;;;;;15.30;49.90;99221.78;5036301;28;20437;-81
2022/05/01 00:50:33;;;;;;;5.50;2.40;;;;;;;15.25;49.67;99216.91;5036548;28;20029;-81
2022/05/01 00:52:58;;;;;;;5.70;2.58;;;;;;;15.29;49.85;99214.84;5036396;28;20041;-82
2022/05/01 00:55:24;;;;;;;5.53;2.42;;;;;;;15.29;49.59;99217.47;5036187;28;20099;-80
2022/05/01 00:57:49;;;;;;;4.32;2.25;;;;;;;15.29;49.72;99222.72;5036294;28;20033;-80
2022/05/01 01:00:18;;;;;;;5.05;2.35;;;;;;;15.25;49.78;99214.28;5035829;28;20041;-81
2022/05/01 01:02:45;;;;;;;4.85;2.28;;;;;;;15.23;49.58;99218.00;5036137;28;20559;-80
2022/05/01 01:05:11;;;;;;;3.03;2.15;;;;;;;15.17;49.68;99206.25;5036142;28;20116;-80
2022/05/01 01:07:37;;;;;;;4.00;2.47;;;;;;;15.15;49.94;99213.44;5035533;28;20166;-80
2022/05/01 01:10:03;;;;;;;5.05;2.20;;;;;;;15.16;49.90;99205.44;5036048;28;20100;-80
2022/05/01 01:15:12;;;;;;;3.42;2.30;;;;;;;15.12;49.39;99211.91;5054005;28;20472;-80
2022/05/01 01:17:42;;;;;;;3.65;2.45;;;;;;;15.12;49.51;99211.09;5054020;28;20024;-80
2022/05/01 01:20:11;;;;;;;3.47;2.53;;;;;;;15.12;49.67;99219.81;5020452;28;20076;-81
2022/05/01 01:22:40;;;;;;;4.07;2.10;;;;;;;15.09;49.58;99216.63;5037425;28;20112;-80
2022/05/01 01:25:10;;;;;;;4.55;2.40;;;;;;;15.08;49.42;99212.31;5036619;28;20362;-80
2022/05/01 01:27:39;;;;;;;4.65;2.58;;;;;;;15.04;49.69;99213.53;5053683;28;20021;-81
2022/05/01 01:32:50;;;;;;;3.08;2.13;;;;;;;14.97;49.49;99207.97;5053750;28;20075;-79
2022/05/01 01:35:15;;;;;;;3.50;2.28;;;;;;;14.94;49.66;99214.34;5052880;28;20049;-81
2022/05/01 01:37:46;;;;;;;3.70;2.40;;;;;;;14.94;49.52;99205.63;5036509;28;20473;-80
2022/05/01 01:40:22;;;;;;;3.88;2.40;;;;;;;14.95;49.39;99212.56;5053453;28;20133;-81
2022/05/01 01:42:50;;;;;;;3.25;2.10;;;;;;;14.96;49.20;99214.19;5053212;28;20029;-81
2022/05/01 01:45:16;;;;;;;5.47;2.30;;;;;;;14.89;49.71;99213.91;5036506;28;20029;-81
2022/05/01 01:47:43;;;;;;;3.45;2.53;;;;;;;14.90;49.79;99217.38;5036857;28;20052;-81
2022/05/01 01:50:09;;;;;;;5.60;2.70;;;;;;;14.86;49.52;99213.34;5036478;28;20066;-81
2022/05/01 01:52:35;;;;;;;5.20;2.20;;;;;;;14.86;49.79;99214.16;5052885;28;20036;-81
2022/05/01 01:55:00;;;;;;;5.28;2.35;;;;;;;14.81;49.47;99200.59;5053868;28;20438;-80
2022/05/01 01:57:26;;;;;;;4.85;2.67;;;;;;;14.84;49.36;99205.59;5036051;28;20052;-80
2022/05/01 01:59:52;;;;;;;5.10;2.50;;;;;;;14.79;49.43;99208.63;5053121;28;20029;-81
2022/05/01 02:02:17;;;;;;;4.70;2.70;;;;;;;14.77;49.60;99192.16;5035872;28;20048;-80
2022/05/01 02:04:43;;;;;;;5.72;2.78;;;;;;;14.76;49.78;99187.84;5036456;28;20044;-81
2022/05/01 02:07:09;;;;;;;4.28;2.47;;;;;;;14.76;49.89;99181.78;5036138;28;20029;-80
2022/05/01 02:09:37;;;;;;;4.00;2.22;;;;;;;14.74;49.89;99183.72;5035709;28;20425;-81
2022/05/01 02:12:06;;;;;;;3.50;2.35;;;;;;;14.70;49.61;99170.00;5053547;28;20075;-80
2022/05/01 02:14:33;;;;;;;3.65;2.20;;;;;;;14.71;49.93;99171.66;5052436;28;20036;-80
2022/05/01 02:16:58;;;;;;;3.53;2.25;;;;;;;14.69;49.60;99168.34;5052210;28;20127;-80
2022/05/01 02:19:24;;;;;;;3.95;2.30;;;;;;;14.67;49.66;99165.00;5051976;28;20067;-80
2022/05/01 02:21:49;;;;;;;3.17;2.15;;;;;;;14.62;49.94;99168.03;5035932;28;20527;-80
2022/05/01 02:24:15;;;;;;;3.80;2.38;;;;;;;14.62;49.71;99170.66;5053056;28;20032;-81
2022/05/01 02:26:41;;;;;;;2.78;2.17;;;;;;;14.62;50.05;99180.34;5035596;28;20400;-81
2022/05/01 02:29:09;;;;;;;2.95;2.03;;;;;;;14.61;49.78;99173.41;5035640;28;20036;-81
2022/05/01 02:31:42;;;;;;;3.35;2.33;;;;;;;14.58;50.21;99171.00;5035533;28;20500;-81
2022/05/01 02:34:08;;;;;;;5.15;2.22;;;;;;;14.56;50.30;99165.88;5019486;28;20053;-82
2022/05/01 02:36:33;;;;;;;4.18;2.38;;;;;;;14.58;50.28;99179.75;5051886;28;20175;-81
2022/05/01 02:38:59;;;;;;;3.28;2.35;;;;;;;14.56;50.31;99170.31;5035094;28;20130;-81
2022/05/01 02:41:25;;;;;;;3.08;2.10;;;;;;;14.54;49.84;99157.31;5051743;28;20115;-81
2022/05/01 02:43:51;;;;;;;2.88;2.05;;;;;;;14.50;49.99;99144.56;5053713;28;20114;-82
2022/05/01 02:46:16;;;;;;;4.78;2.20;;;;;;;14.48;49.86;99142.94;5035204;28;20037;-81
2022/05/01 02:48:42;;;;;;;3.67;2.50;;;;;;;14.54;49.87;99149.44;5052954;28;20033;-81
2022/05/01 02:51:08;;;;;;;4.47;2.67;;;;;;;14.50;49.80;99147.19;5051413;28;20095;-81
2022/05/01 02:53:33;;;;;;;3.72;2.30;;;;;;;14.49;49.71;99149.00;5051868;28;20114;-81
2022/05/01 02:56:00;;;;;;;6.53;2.47;;;;;;;14.51;49.86;99154.94;5035465;28;20074;-82
2022/05/01 02:58:29;;;;;;;2.80;2.30;;;;;;;14.54;49.61;99162.56;5035474;28;20122;-82
2022/05/01 03:00:55;;;;;;;3.88;2.30;;;;;;;14.56;49.72;99155.38;5018849;28;20037;-82
2022/05/01 03:03:20;;;;;;;4.57;2.33;;;;;;;14.55;49.36;99159.00;5051680;28;20031;-81
2022/05/01 03:05:47;;;;;;;5.07;2.92;;;;;;;14.54;49.46;99153.88;5035041;28;20435;-81
2022/05/01 03:08:12;;;;;;;4.00;2.75;;;;;;;14.57;49.08;99156.22;5034838;28;20049;-81
2022/05/01 03:10:38;;;;;;;5.30;2.63;;;;;;;14.59;49.04;99159.56;5034815;28;20037;-81
2022/05/01 03:13:04;;;;;;;7.30;2.60;;;;;;;14.62;48.94;99154.06;5051152;28;20029;-81
2022/05/01 03:15:29;;;;;;;4.25;2.42;;;;;;;14.65;48.61;99157.25;5051152;28;20040;-81
2022/05/01 03:23:23;;;;;;;6.13;2.75;;;;;;;14.84;48.00;99163.53;5037201;28;20035;-81
2022/05/01 03:25:48;;;;;;;3.38;2.65;;;;;;;14.89;47.83;99161.34;5050802;28;20120;-82
2022/05/01 03:28:14;;;;;;;3.33;2.50;;;;;;;14.97;47.86;99158.03;5052516;28;20438;-82
2022/05/01 03:30:39;;;;;;;4.70;2.60;;;;;;;15.06;47.54;99166.94;5017919;28;20029;-82
2022/05/01 03:33:07;;;;;;;4.45;2.78;;;;;;;15.15;47.28;99169.56;5018023;28;20036;-82
2022/05/01 03:35:35;;;;;;;6.65;2.75;;;;;;;15.24;47.15;99165.28;5052538;28;20049;-81
2022/05/01 03:38:02;;;;;;;3.97;2.70;;;;;;;15.62;46.33;99175.97;5034851;28;20396;-81
2022/05/01 03:40:27;;;;;;;4.20;2.45;;;;;;;16.61;44.12;99168.59;5051001;28;20116;-83
2022/05/01 03:42:54;;;;;;;3.17;2.58;;;;;;;17.43;42.39;99176.63;5017947;28;20116;-81
2022/05/01 03:45:19;;;;;;;5.22;2.60;;;;;;;18.15;40.63;99176.56;5034697;28;20036;-81
2022/05/01 03:47:45;;;;;;;4.25;2.28;;;;;;;18.89;39.11;99182.25;5034427;28;20400;-81
2022/05/01 03:50:11;;;;;;;4.50;2.45;;;;;;;19.61;37.55;99178.28;5034186;28;20052;-81
2022/05/01 03:52:37;;;;;;;3.60;2.15;;;;;;;20.23;36.11;99173.31;5034619;28;20033;-81
2022/05/01 03:55:03;;;;;;;4.63;2.28;;;;;;;20.90;35.26;99177.44;5051121;28;20025;-82
2022/05/01 03:57:28;;;;;;;3.67;2.00;;;;;;;21.50;33.74;99173.28;5034252;28;20025;-81
2022/05/01 03:59:54;;;;;;;3.67;1.90;;;;;;;22.16;32.60;99182.56;5034149;28;20052;-81
2022/05/01 04:02:19;;;;;;;3.80;2.08;;;;;;;22.76;31.25;99180.78;5051064;28;20104;-83
2022/05/01 04:04:46;;;;;;;4.35;2.30;;;;;;;23.33;30.41;99181.88;5034130;28;20512;-81
2022/05/01 04:07:12;;;;;;;3.45;2.25;;;;;;;23.87;29.48;99183.25;5051063;28;20060;-81
2022/05/01 04:09:37;;;;;;;2.95;1.80;;;;;;;24.45;28.58;99182.19;5034066;28;20045;-77
2022/05/01 04:12:07;;;;;;;6.35;2.05;;;;;;;25.01;28.01;99184.75;5034281;28;20029;-76
2022/05/01 04:14:33;;;;;;;3.55;2.20;;;;;;;25.48;27.55;99192.13;5034820;28;20036;-80
2022/05/01 04:17:01;;;;;;;3.58;1.73;;;;;;;25.98;26.54;99190.75;5017696;28;20404;-80
2022/05/01 04:19:28;;;;;;;3.35;1.90;;;;;;;26.48;26.29;99197.47;5018780;28;20672;-80
2022/05/01 04:21:55;;;;;;;4.10;1.80;;;;;;;26.94;25.47;99188.50;5034004;28;20071;-80
2022/05/01 04:24:21;;;;;;;2.47;1.50;;;;;;;27.50;24.86;99195.03;5050967;28;20033;-80
2022/05/01 04:26:46;;;;;;;4.65;1.80;;;;;;;27.96;24.22;99193.09;5034197;28;20029;-80
2022/05/01 04:31:56;;;;;;;2.83;1.90;;;;;;;28.87;22.93;99204.97;5051362;28;20086;-81
2022/05/01 04:34:21;;;;;;;2.90;1.85;;;;;;;29.29;22.23;99201.59;5051715;28;20061;-79
2022/05/01 04:36:46;;;;;;;4.35;2.13;;;;;;;29.82;21.50;99186.53;5034007;28;20039;-80
2022/05/01 04:39:12;;;;;;;3.80;1.88;;;;;;;30.13;21.06;99203.41;5017416;28;20462;-79
2022/05/01 04:41:38;;;;;;;4.75;1.83;;;;;;;30.50;20.20;99205.88;5051288;28;20041;-79
2022/05/01 04:44:03;;;;;;;3.15;1.75;;;;;;;30.87;19.85;99204.75;5053817;28;20029;-80
2022/05/01 04:46:29;;;;;;;3.90;1.85;;;;;;;31.01;20.12;99200.75;5055427;28;20112;-80
2022/05/01 04:48:54;;;;;;;9.43;2.28;;;;;;;31.23;19.76;99206.28;5020907;28;20045;-79
2022/05/01 04:51:20;;;;;;;4.18;2.10;;;;;;;31.60;19.23;99205.91;5037388;28;20033;-80
2022/05/01 04:53:45;;;;;;;3.85;1.98;;;;;;;31.87;18.97;99214.19;5055241;28;20061;-80
2022/05/01 04:58:55;;;;;;;3.10;1.95;;;;;;;32.49;18.09;99193.50;5054973;28;20219;-80
2022/05/01 05:01:20;;;;;;;4.85;1.77;;;;;;;32.94;17.69;99203.28;5020632;28;20037;-80
2022/05/01 05:03:46;;;;;;;6.22;1.70;;;;;;;33.27;17.46;99201.53;5020586;28;20045;-80
2022/05/01 05:06:12;;;;;;;3.33;1.70;;;;;;;33.54;16.98;99200.66;5053700;28;20025;-80
2022/05/01 05:11:21;;;;;;;2.70;1.88;;;;;;;33.74;17.01;99201.97;5053944;28;20560;-81
2022/05/01 05:13:47;;;;;;;5.60;1.73;;;;;;;34.05;16.86;99203.81;5054905;28;20036;-82
2022/05/01 05:16:13;;;;;;;5.28;1.77;;;;;;;34.19;16.27;99206.06;5053215;28;20032;-83
2022/05/01 05:18:40;;;;;;;4.38;1.60;;;;;;;34.48;16.36;99211.97;5036962;28;20044;-80
2022/05/01 05:21:09;;;;;;;4.70;1.20;;;;;;;34.85;17.76;99215.69;5054027;28;20044;-79
2022/05/01 05:23:34;;;;;;;2.85;1.20;;;;;;;35.07;17.27;99212.78;5044320;28;20063;-87
2022/05/01 05:26:00;;;;;;;5.78;1.42;;;;;;;35.14;16.17;99207.91;5020323;28;20124;-87
2022/05/01 05:28:26;;;;;;;2.05;1.33;;;;;;;35.35;16.15;99216.94;5040711;28;20111;-87
2022/05/01 05:30:51;;;;;;;3.05;1.58;;;;;;;35.45;15.86;99211.50;5042063;28;20414;-87
2022/05/01 05:33:17;;;;;;;2.50;1.40;;;;;;;35.55;15.73;99220.75;5031986;28;20041;-87
2022/05/01 05:35:43;;;;;;;4.07;1.13;;;;;;;35.67;15.16;99213.16;5016337;28;20038;-87
2022/05/01 05:38:08;;;;;;;2.80;1.60;;;;;;;35.74;15.00;99210.16;5025008;28;20029;-88
2022/05/01 05:40:34;;;;;;;2.55;1.40;;;;;;;35.86;15.19;99213.47;5026865;28;20120;-90
2022/05/01 05:42:59;;;;;;;3.60;1.70;;;;;;;35.94;14.72;99212.09;5054201;28;20037;-89
2022/05/01 05:45:25;;;;;;;4.57;1.50;;;;;;;36.01;14.97;99213.47;5054468;28;20438;-84
2022/05/01 05:47:50;;;;;;;5.40;1.00;;;;;;;36.17;18.42;99216.16;5054184;28;20545;-83
2022/05/01 05:50:22;;;;;;;9.02;1.50;;;;;;;36.31;19.00;99221.84;5045006;28;20488;-83
2022/05/01 05:52:48;;;;;;;15.68;1.70;;;;;;;36.42;18.15;99225.34;5052786;28;20500;-87
2022/05/01 05:55:13;;;;;;;12.77;1.95;;;;;;;36.31;17.66;99230.84;5036144;28;20026;-81
2022/05/01 05:57:39;;;;;;;12.07;1.90;;;;;;;36.42;17.75;99231.63;5052586;28;20056;-78
2022/05/01 06:00:05;;;;;;;5.93;1.90;;;;;;;36.45;17.88;99235.69;5053669;28;20495;-80
2022/05/01 06:02:30;;;;;;;10.38;1.80;;;;;;;36.33;16.34;99233.28;5019388;28;20492;-80
2022/05/01 06:04:58;;;;;;;6.03;1.75;;;;;;;36.44;14.75;99234.88;5054156;28;20032;-80
2022/05/01 06:07:23;;;;;;;5.53;1.55;;;;;;;36.25;14.49;99228.38;5052713;28;20025;-80
2022/05/01 06:09:48;;;;;;;3.47;1.48;;;;;;;36.19;14.62;99235.72;5036445;28;20468;-78
2022/05/01 06:12:14;;;;;;;3.13;1.52;;;;;;;36.27;13.62;99226.22;5053984;28;20029;-78
2022/05/01 06:14:39;;;;;;;2.88;1.30;;;;;;;36.07;13.70;99225.13;5053586;28;20064;-81
2022/05/01 06:17:05;;;;;;;5.40;1.65;;;;;;;36.18;13.57;99231.34;5053511;28;20037;-83
2022/05/01 06:19:30;;;;;;;2.35;1.20;;;;;;;36.02;15.22;99231.38;5053840;28;20063;-79
2022/05/01 06:21:56;;;;;;;5.75;1.63;;;;;;;35.94;17.78;99223.78;5053221;28;20044;-79
2022/05/01 06:24:21;;;;;;;8.25;1.60;;;;;;;35.90;18.07;99221.88;5053386;28;20029;-79
2022/05/01 06:26:47;;;;;;;5.57;1.40;;;;;;;35.65;15.36;99224.28;5052108;28;20098;-79
2022/05/01 06:29:12;;;;;;;3.47;1.10;;;;;;;35.45;13.74;99224.28;5053572;28;20033;-77
2022/05/01 06:31:41;;;;;;;4.18;1.33;;;;;;;35.17;13.63;99220.94;5035596;28;20037;-78
2022/05/01 06:34:08;;;;;;;3.25;1.23;;;;;;;34.99;14.88;99219.53;5052256;28;20045;-79
2022/05/01 06:36:34;;;;;;;1.52;1.00;;;;;;;34.93;14.22;99220.59;5033290;28;20438;-82
2022/05/01 06:38:59;;;;;;;2.10;1.30;;;;;;;34.91;14.12;99233.59;5042690;28;20044;-77
2022/05/01 06:41:24;;;;;;;3.17;1.20;;;;;;;34.68;14.34;99223.97;5033454;28;20052;-77
2022/05/01 06:43:50;;;;;;;3.25;1.50;;;;;;;34.48;14.86;99228.22;5032335;28;20029;-77
2022/05/01 06:46:16;;;;;;;3.13;1.50;;;;;;;34.38;14.20;99223.56;5031410;28;20026;-78
2022/05/01 06:48:44;;;;;;;2.88;1.35;;;;;;;34.24;14.71;99225.13;5033336;28;20037;-77
2022/05/01 06:51:09;;;;;;;2.33;1.27;;;;;;;34.13;14.63;99226.06;5033076;28;20495;-77
2022/05/01 06:53:35;;;;;;;3.40;1.40;;;;;;;34.00;14.26;99219.22;5033084;28;20041;-78
2022/05/01 06:56:00;;;;;;;2.60;1.20;;;;;;;33.79;14.57;99221.75;5032915;28;20072;-78
2022/05/01 06:58:26;;;;;;;3.03;1.25;;;;;;;33.82;14.93;99229.38;5015336;28;20041;-77
2022/05/01 07:00:54;;;;;;;4.18;1.23;;;;;;;33.76;14.56;99230.41;5015443;28;20100;-77
2022/05/01 07:03:20;;;;;;;4.35;1.30;;;;;;;33.61;14.41;99228.34;5031968;28;20457;-77
2022/05/01 07:05:46;;;;;;;2.05;1.38;;;;;;;33.46;14.55;99237.16;4998866;28;20036;-78
2022/05/01 07:08:11;;;;;;;5.18;1.25;;;;;;;33.31;14.62;99223.47;5015563;28;20033;-78
2022/05/01 07:10:37;;;;;;;2.30;1.13;;;;;;;33.26;14.87;99237.75;5032474;28;20052;-77
2022/05/01 07:13:02;;;;;;;4.53;1.17;;;;;;;33.19;14.62;99237.13;5031090;28;20045;-78
2022/05/01 07:15:28;;;;;;;3.08;1.20;;;;;;;33.20;15.02;99238.75;5032629;28;20369;-77
2022/05/01 07:17:53;;;;;;;1.85;1.02;;;;;;;33.09;14.83;99237.78;5015500;28;20037;-77
2022/05/01 07:20:19;;;;;;;3.65;1.10;;;;;;;33.13;15.36;99241.63;5031496;28;20495;-77
2022/05/01 07:22:44;;;;;;;3.65;1.25;;;;;;;33.27;15.28;99233.97;5031331;28;20087;-77
2022/05/01 07:25:10;;;;;;;2.67;1.20;;;;;;;33.30;15.53;99219.13;5031739;28;20091;-78
2022/05/01 07:27:35;;;;;;;4.13;1.20;;;;;;;33.46;15.03;99226.34;5032518;28;20064;-77
2022/05/01 07:30:01;;;;;;;4.00;1.45;;;;;;;33.41;14.93;99228.97;5031235;28;20029;-78
2022/05/01 07:32:26;;;;;;;3.22;1.20;;;;;;;33.33;15.35;99227.53;5031509;28;20053;-77
2022/05/01 07:34:52;;;;;;;5.80;1.50;;;;;;;33.41;15.21;99237.09;5032514;28;20471;-77
2022/05/01 07:37:20;;;;;;;2.40;1.25;;;;;;;33.40;14.99;99248.16;5032148;28;20087;-78
2022/05/01 07:39:45;;;;;;;3.38;1.27;;;;;;;32.84;15.40;99240.19;5014804;28;20536;-77
2022/05/01 07:42:11;;;;;;;2.17;1.30;;;;;;;32.81;15.65;99244.22;5032184;28;20061;-77
2022/05/01 07:44:37;;;;;;;5.82;1.30;;;;;;;32.96;15.99;99239.00;5031444;28;20037;-77
2022/05/01 07:47:02;;;;;;;3.67;1.48;;;;;;;32.98;15.94;99244.97;5014759;28;20025;-78
2022/05/01 07:49:28;;;;;;;2.67;1.15;;;;;;;32.80;15.94;99239.91;5031059;28;20037;-77
2022/05/01 07:51:53;;;;;;;3.15;1.15;;;;;;;32.90;15.60;99234.59;5031441;28;20111;-78
2022/05/01 07:54:19;;;;;;;2.78;1.20;;;;;;;32.70;15.64;99247.84;5030537;28;20420;-78
2022/05/01 07:56:44;;;;;;;3.65;1.30;;;;;;;32.72;16.20;99245.72;5014635;28;20489;-77
2022/05/01 07:59:11;;;;;;;3.40;1.20;;;;;;;32.89;15.93;99254.59;5032897;28;20080;-78
2022/05/01 08:01:38;;;;;;;2.85;1.33;;;;;;;32.96;16.16;99241.72;5032552;28;20036;-77
2022/05/01 08:06:48;;;;;;;4.72;1.20;;;;;;;32.67;15.93;99237.53;5032091;28;20040;-77
2022/05/01 08:09:14;;;;;;;2.90;1.25;;;;;;;32.54;16.49;99236.81;5031332;28;20527;-77
2022/05/01 08:11:39;;;;;;;3.40;1.23;;;;;;;32.20;16.63;99234.16;5031891;28;20029;-77
2022/05/01 08:14:04;;;;;;;2.35;1.45;;;;;;;32.37;16.37;99233.31;5030886;28;20034;-78
2022/05/01 08:16:30;;;;;;;3.03;1.38;;;;;;;32.47;16.88;99230.78;5014887;28;20046;-77
2022/05/01 08:21:39;;;;;;;2.42;1.42;;;;;;;32.48;16.61;99235.09;5035228;28;20106;-78
2022/05/01 08:24:05;;;;;;;2.55;1.30;;;;;;;32.35;16.87;99232.75;5035593;28;20476;-78
2022/05/01 08:26:34;;;;;;;2.85;1.20;;;;;;;32.39;16.57;99225.81;5034751;28;20112;-78
2022/05/01 08:29:00;;;;;;;2.80;1.30;;;;;;;31.98;16.86;99219.75;5018851;28;20546;-78
2022/05/01 08:31:25;;;;;;;2.13;1.20;;;;;;;32.05;16.45;99218.50;5034597;28;20057;-76
2022/05/01 08:33:51;;;;;;;3.50;1.25;;;;;;;31.49;17.19;99215.69;5017443;28;20037;-78
2022/05/01 08:36:17;;;;;;;2.20;1.23;;;;;;;31.38;17.08;99219.25;5034663;28;20085;-78
2022/05/01 08:38:42;;;;;;;3.40;1.20;;;;;;;31.30;17.29;99225.03;5034612;28;20109;-78
2022/05/01 08:41:08;;;;;;;2.70;1.20;;;;;;;31.41;17.54;99223.31;5035538;28;20037;-78
2022/05/01 08:43:34;;;;;;;2.17;0.98;;;;;;;31.27;17.21;99215.53;5035704;28;20044;-76
2022/05/01 08:46:24;;;;;;;3.70;1.10;;;;;;;31.38;17.46;99225.47;5017913;28;20032;-78
2022/05/01 08:49:05;;;;;;;3.83;1.30;;;;;;;30.93;17.75;99215.41;5035510;28;20030;-78
2022/05/01 08:51:38;;;;;;;2.30;1.10;;;;;;;30.65;17.93;99224.25;5034137;28;20080;-78
2022/05/01 08:54:11;;;;;;;2.67;1.20;;;;;;;30.44;18.09;99225.66;5034099;28;20091;-78
2022/05/01 08:56:37;;;;;;;3.90;1.55;;;;;;;30.21;17.86;99221.91;5018399;28;20468;-78
2022/05/01 08:59:09;;;;;;;3.53;1.20;;;;;;;29.86;18.27;99220.00;5017608;28;20083;-78
2022/05/01 09:01:35;;;;;;;3.72;1.40;;;;;;;30.04;18.29;99211.00;5017326;28;20139;-79
2022/05/01 09:04:01;;;;;;;2.67;1.33;;;;;;;30.02;18.22;99207.75;5001079;28;20072;-78
2022/05/01 09:06:27;;;;;;;3.83;1.30;;;;;;;29.94;18.22;99214.28;5033833;28;20032;-78
2022/05/01 09:08:52;;;;;;;3.25;1.30;;;;;;;29.83;18.66;99219.66;5033659;28;20036;-77
2022/05/01 09:14:02;;;;;;;3.83;1.33;;;;;;;29.34;18.92;99217.84;5034839;28;20420;-76
2022/05/01 09:16:28;;;;;;;2.58;1.33;;;;;;;29.39;19.19;99215.28;5033630;28;20083;-77
2022/05/01 09:18:54;;;;;;;2.25;1.10;;;;;;;29.21;19.60;99210.78;5033955;28;20503;-77
2022/05/01 09:21:19;;;;;;;3.92;1.30;;;;;;;28.98;18.99;99222.19;5034072;28;20032;-77
2022/05/01 09:23:48;;;;;;;2.00;1.17;;;;;;;28.60;19.64;99200.97;5000448;28;20052;-76
2022/05/01 09:26:18;;;;;;;3.70;1.40;;;;;;;27.95;20.51;99208.34;5016915;28;20449;-76
2022/05/01 09:28:54;;;;;;;2.85;1.58;;;;;;;28.03;20.26;99196.53;5033155;28;20038;-76
2022/05/01 09:31:47;;;;;;;5.50;1.20;;;;;;;28.06;20.33;99206.00;5033531;28;20120;-76
2022/05/01 09:34:23;;;;;;;3.17;1.55;;;;;;;27.55;20.55;99202.44;5032735;28;20405;-77
2022/05/01 09:36:49;;;;;;;2.28;1.27;;;;;;;27.54;20.90;99198.09;5017220;28;20029;-77
2022/05/01 09:39:26;;;;;;;3.25;1.42;;;;;;;27.54;20.37;99195.44;5033111;28;20404;-77
2022/05/01 09:41:52;;;;;;;5.43;1.40;;;;;;;27.53;20.48;99191.09;5016850;28;20132;-77
2022/05/01 09:44:19;;;;;;;4.85;1.70;;;;;;;27.49;20.76;99192.59;5016964;28;20040;-77
2022/05/01 09:46:46;;;;;;;3.10;1.63;;;;;;;27.32;21.00;99195.75;5016819;28;20034;-77
2022/05/01 09:49:15;;;;;;;3.85;1.83;;;;;;;27.39;20.83;99188.50;5017162;28;20091;-77
2022/05/01 09:51:43;;;;;;;2.42;1.40;;;;;;;27.32;20.82;99193.06;5001319;28;20037;-78
2022/05/01 09:54:09;;;;;;;2.95;1.60;;;;;;;26.80;21.21;99185.03;5001116;28;20052;-77
2022/05/01 09:56:54;;;;;;;4.53;1.67;;;;;;;26.76;21.13;99178.47;5017033;28;20480;-78
2022/05/01 09:59:21;;;;;;;2.20;1.10;;;;;;;27.08;21.04;99173.19;5033031;28;20045;-77
2022/05/01 10:02:02;;;;;;;5.37;1.47;;;;;;;27.35;21.11;99167.72;5016238;28;20046;-77
2022/05/01 10:04:28;;;;;;;2.60;1.55;;;;;;;27.58;20.82;99173.34;5016546;28;20030;-78
2022/05/01 10:06:54;;;;;;;2.75;1.30;;;;;;;27.83;20.50;99166.31;5032249;28;20046;-78
2022/05/01 10:09:35;;;;;;;4.53;1.30;;;;;;;27.92;20.43;99157.78;5000223;28;20041;-78
2022/05/01 10:12:06;;;;;;;2.88;1.33;;;;;;;27.91;20.91;99158.84;5001548;28;20056;-77
2022/05/01 10:14:32;;;;;;;2.78;1.50;;;;;;;27.95;20.58;99153.88;5016207;28;20095;-78
2022/05/01 10:16:57;;;;;;;2.97;1.42;;;;;;;28.03;20.50;99152.78;5032186;28;20029;-77
2022/05/01 10:19:26;;;;;;;2.55;1.63;;;;;;;27.91;20.62;99150.78;5033558;28;20034;-77
2022/05/01 10:21:59;;;;;;;3.97;1.33;;;;;;;28.01;20.37;99149.50;5032312;28;20037;-77
2022/05/01 10:24:24;;;;;;;3.65;1.30;;;;;;;28.07;20.57;99148.59;5001116;28;20040;-77
2022/05/01 10:27:31;;;;;;;2.78;1.30;;;;;;;27.62;20.93;99146.88;5015472;28;20116;-77
2022/05/01 10:32:47;;;;;;;3.95;1.40;;;;;;;27.67;20.87;99135.50;5033564;28;20063;-77
2022/05/01 10:35:26;;;;;;;2.88;1.50;;;;;;;27.67;21.53;99128.28;5031068;28;20049;-77
2022/05/01 10:38:06;;;;;;;2.42;1.30;;;;;;;27.75;21.20;99128.03;5032186;28;20032;-77
2022/05/01 10:40:46;;;;;;;2.35;1.20;;;;;;;27.58;21.25;99129.63;5031465;28;20492;-77
2022/05/01 10:43:24;;;;;;;2.50;1.30;;;;;;;27.57;20.77;99123.41;5032434;28;20472;-77
2022/05/01 10:45:51;;;;;;;3.92;1.40;;;;;;;27.46;21.48;99124.13;5034001;28;20029;-77
2022/05/01 10:48:38;;;;;;;2.40;1.30;;;;;;;27.48;21.25;99111.31;5015661;28;20492;-76
2022/05/01 10:51:52;;;;;;;2.83;1.42;;;;;;;27.31;21.02;99108.38;5002058;28;20072;-77
2022/05/01 10:54:17;;;;;;;4.18;1.50;;;;;;;27.02;21.14;99118.59;5029697;28;20076;-77
2022/05/01 10:56:50;;;;;;;3.83;1.20;;;;;;;26.94;21.45;99112.69;5033236;28;20471;-78
2022/05/01 10:59:31;;;;;;;4.13;1.40;;;;;;;27.03;21.79;99106.03;5033149;28;20112;-77
2022/05/01 11:01:58;;;;;;;3.80;1.55;;;;;;;27.08;21.21;99095.50;5032891;28;20033;-77
2022/05/01 11:04:23;;;;;;;1.92;1.20;;;;;;;27.00;21.75;99096.56;5015088;28;20041;-78
2022/05/01 11:06:52;;;;;;;2.15;1.38;;;;;;;27.00;21.79;99090.41;5031379;28;20048;-77
2022/05/01 11:09:21;;;;;;;2.30;1.20;;;;;;;27.14;21.09;99096.50;5031360;28;20150;-77
2022/05/01 11:11:47;;;;;;;3.25;1.33;;;;;;;27.14;21.10;99091.16;5015216;28;20033;-77
2022/05/01 11:14:13;;;;;;;2.75;1.33;;;;;;;26.99;20.97;99094.09;5019117;28;20035;-77
2022/05/01 11:16:52;;;;;;;2.58;1.40;;;;;;;26.94;21.14;99101.97;5023545;28;20086;-81
2022/05/01 11:19:17;;;;;;;2.90;1.42;;;;;;;26.87;21.47;99102.00;5014750;28;20032;-79
2022/05/01 11:21:47;;;;;;;3.58;1.17;;;;;;;26.52;31.08;99097.00;5032343;28;20041;-84
2022/05/01 11:24:15;;;;;;;4.88;1.67;;;;;;;26.49;25.76;99095.56;5014737;28;20064;-87
2022/05/01 11:27:16;;;;;;;13.90;1.60;;;;;;;26.40;26.96;99080.75;5015143;28;20033;-86
2022/05/01 11:30:07;;;;;;;4.22;1.55;;;;;;;26.28;23.71;99088.63;5017478;28;20033;-81
2022/05/01 11:33:11;;;;;;;3.42;1.50;;;;;;;26.16;26.22;99088.44;5032298;28;20021;-84
2022/05/01 11:35:55;;;;;;;5.13;1.80;;;;;;;26.07;26.15;99076.31;5030363;28;20126;-84
2022/05/01 11:38:30;;;;;;;4.72;1.63;;;;;;;26.03;27.84;99084.97;5024343;28;20056;-88
2022/05/01 11:41:02;;;;;;;7.60;1.70;;;;;;;25.91;28.45;99076.75;5016776;28;20515;-78
2022/05/01 11:43:28;;;;;;;6.60;1.90;;;;;;;25.87;27.22;99078.19;4999426;28;20111;-82
2022/05/01 11:45:57;;;;;;;3.38;1.60;;;;;;;25.86;25.95;99087.25;5014707;28;20031;-80
2022/05/01 11:48:23;;;;;;;3.17;1.55;;;;;;;25.67;25.57;99071.03;5031307;28;20033;-81
2022/05/01 11:50:51;;;;;;;4.10;1.35;;;;;;;25.75;29.69;99086.03;5033574;28;20412;-79
2022/05/01 11:53:17;;;;;;;;;;;;;;;25.63;28.70;99083.16;5019436;28;20032;-77
2022/05/01 12:04:27;;;;;;;3.80;1.50;;;;;;;25.83;26.03;99065.22;5021699;28;20040;-81
2022/05/01 12:06:57;;;;;;;3.50;1.33;;;;;;;25.95;25.64;99068.09;5034898;28;20112;-86
2022/05/01 12:09:25;;;;;;;10.18;1.50;;;;;;;25.99;25.26;99066.66;5018739;28;20030;-89
2022/05/01 12:11:50;;;;;;;3.08;1.65;;;;;;;25.82;25.90;99054.75;5035004;28;20034;-79
2022/05/01 12:14:15;;;;;;;6.20;1.80;;;;;;;25.56;26.88;99064.44;5036070;28;20037;-85
2022/05/01 12:16:41;;;;;;;5.30;1.63;;;;;;;25.28;26.60;99052.09;5035100;28;20492;-89
2022/05/01 12:19:08;;;;;;;8.20;1.90;;;;;;;25.32;26.87;99052.53;5020473;28;20127;-88
2022/05/01 12:21:34;;;;;;;5.67;1.73;;;;;;;25.41;27.38;99047.78;5021700;28;20508;-79